Time;durP1;ratioP1;P1;durP2;ratioP2;P2;SDS_P1;SDS_P2;PMS_P1;PMS_P2;Temp;Humidity;BMP_temperature;BMP_pressure;BME280_temperature;BME280_humidity;BME280_pressure;Samples;Min_cycle;Max_cycle;Signal;HPM_P1;HPM_P2
2022/09/23 00:00:27;;;;;;;13.55;6.05;;;;;;;12.98;100.00;98177.22;5041806;28;20496;-92
2022/09/23 00:02:52;;;;;;;13.68;7.28;;;;;;;13.00;100.00;98174.56;5048061;28;20036;-92
2022/09/23 00:05:20;;;;;;;18.00;6.50;;;;;;;13.00;100.00;98171.94;5048424;28;20075;-92
2022/09/23 00:07:47;;;;;;;15.75;7.50;;;;;;;13.15;100.00;98190.72;5049635;28;20074;-91
2022/09/23 00:10:13;;;;;;;13.57;6.43;;;;;;;12.89;100.00;98180.97;5045610;28;20123;-92
2022/09/23 00:12:38;;;;;;;13.43;6.30;;;;;;;12.87;100.00;98177.50;5072156;28;20214;-90
2022/09/23 00:15:04;;;;;;;13.07;7.03;;;;;;;12.97;100.00;98183.34;5049233;28;20036;-91
2022/09/23 00:17:30;;;;;;;13.18;6.45;;;;;;;13.00;100.00;98182.41;5038974;28;20419;-91
2022/09/23 00:19:56;;;;;;;13.40;6.70;;;;;;;14.14;100.00;98172.00;5051854;28;20365;-90
2022/09/23 00:22:21;;;;;;;15.40;6.80;;;;;;;13.06;100.00;98172.63;5054224;28;20039;-91
2022/09/23 00:24:47;;;;;;;14.85;7.00;;;;;;;12.87;100.00;98167.03;5052713;28;20491;-92
2022/09/23 00:27:12;;;;;;;13.57;7.50;;;;;;;13.98;100.00;98176.88;5036548;28;20029;-93
2022/09/23 00:29:38;;;;;;;12.02;6.53;;;;;;;14.01;100.00;98178.53;5036797;28;21742;-91
2022/09/23 00:32:04;;;;;;;13.70;7.30;;;;;;;13.27;100.00;98160.66;5036396;28;20475;-92
2022/09/23 00:34:29;;;;;;;13.52;6.82;;;;;;;13.17;100.00;98169.72;5039393;28;20035;-92
2022/09/23 00:36:58;;;;;;;16.30;7.55;;;;;;;12.94;100.00;98163.38;5040265;28;20033;-92
2022/09/23 00:39:24;;;;;;;13.65;6.72;;;;;;;12.98;100.00;98161.50;5034813;28;20044;-92
2022/09/23 00:41:51;;;;;;;14.38;7.53;;;;;;;12.94;100.00;98171.22;5042260;28;20186;-92
2022/09/23 00:44:52;;;;;;;15.35;8.15;;;;;;;13.02;100.00;98171.00;5042161;28;20028;-92
2022/09/23 00:47:31;;;;;;;12.43;6.78;;;;;;;12.88;100.00;98166.16;5039363;28;20075;-92
2022/09/23 00:50:28;;;;;;;14.85;7.57;;;;;;;12.83;100.00;98162.81;5054063;28;20035;-92
2022/09/23 00:52:56;;;;;;;15.30;6.75;;;;;;;12.78;100.00;98162.94;5054469;28;20043;-92
2022/09/23 00:55:47;;;;;;;13.07;6.50;;;;;;;12.88;100.00;98173.16;5051651;28;20084;-92
2022/09/23 00:58:18;;;;;;;14.27;7.20;;;;;;;13.02;100.00;98165.75;5052577;28;20044;-91
2022/09/23 01:00:45;;;;;;;14.32;6.03;;;;;;;13.10;100.00;98163.78;5053198;28;20033;-92
2022/09/23 01:03:13;;;;;;;11.90;5.28;;;;;;;13.10;100.00;98162.94;5055838;28;20028;-92
2022/09/23 01:05:39;;;;;;;13.27;5.45;;;;;;;13.08;100.00;98156.88;5065749;28;20271;-93
2022/09/23 01:08:07;;;;;;;12.25;4.93;;;;;;;13.25;100.00;98161.63;5050498;28;20407;-92
2022/09/23 01:10:39;;;;;;;10.95;5.80;;;;;;;13.07;100.00;98163.88;5054186;28;20032;-92
2022/09/23 01:13:22;;;;;;;13.10;5.37;;;;;;;13.29;100.00;98158.88;5052731;28;20112;-93
2022/09/23 01:16:07;;;;;;;10.25;5.20;;;;;;;13.20;100.00;98159.16;5066809;28;20345;-91
2022/09/23 01:18:50;;;;;;;11.90;4.60;;;;;;;13.18;100.00;98163.59;5054952;28;20035;-93
2022/09/23 01:21:28;;;;;;;10.43;4.47;;;;;;;13.28;100.00;98156.31;5043164;28;20024;-93
2022/09/23 01:24:13;;;;;;;10.60;4.63;;;;;;;13.31;100.00;98158.84;5040794;28;20039;-93
2022/09/23 01:26:50;;;;;;;11.20;4.57;;;;;;;13.29;100.00;98163.25;5040573;28;21347;-92
2022/09/23 01:29:28;;;;;;;10.38;3.92;;;;;;;13.27;100.00;98165.06;5038956;28;20074;-92
2022/09/23 01:32:38;;;;;;;10.95;3.90;;;;;;;13.12;100.00;98161.13;5041446;28;20032;-93
2022/09/23 01:35:24;;;;;;;9.55;3.92;;;;;;;13.27;100.00;98158.06;4958788;28;20034;-92
2022/09/23 01:38:07;;;;;;;9.95;3.58;;;;;;;13.35;100.00;98163.09;4946577;28;20047;-92
2022/09/23 01:41:20;;;;;;;10.10;3.90;;;;;;;13.34;100.00;98166.59;4958973;28;20049;-92
2022/09/23 01:43:57;;;;;;;9.88;4.20;;;;;;;13.29;100.00;98158.00;4921300;29;20136;-92
2022/09/23 01:46:49;;;;;;;11.20;4.65;;;;;;;13.42;100.00;98161.16;4922604;29;20745;-94
2022/09/23 01:49:18;;;;;;;14.40;4.82;;;;;;;13.35;100.00;98152.63;4905979;29;20150;-93
2022/09/23 01:52:10;;;;;;;9.80;4.55;;;;;;;13.27;100.00;98154.59;4919995;29;20058;-93
2022/09/23 01:54:49;;;;;;;10.85;4.93;;;;;;;13.26;100.00;98151.13;4917043;29;20035;-93
2022/09/23 01:57:27;;;;;;;11.63;5.70;;;;;;;13.15;100.00;98151.44;4902239;29;20051;-93
2022/09/23 02:00:04;;;;;;;11.32;5.57;;;;;;;13.07;100.00;98149.91;4895152;29;20457;-93
2022/09/23 02:02:53;;;;;;;12.63;5.97;;;;;;;13.08;100.00;98154.25;5151594;22;20064;-95
2022/09/23 02:05:57;;;;;;;;;;;;;;;;;;;;;
2022/09/23 02:08:46;;;;;;;15.25;6.78;;;;;;;13.03;100.00;98145.69;5075112;28;21409;-95
2022/09/23 02:11:51;;;;;;;15.63;8.23;;;;;;;13.17;100.00;98142.69;5050191;28;20466;-96
2022/09/23 02:15:03;;;;;;;16.95;8.02;;;;;;;13.34;100.00;98140.41;5050085;28;20028;-94
2022/09/23 02:18:01;;;;;;;14.82;7.55;;;;;;;13.44;100.00;98151.50;5048240;28;20024;-96
2022/09/23 02:20:40;;;;;;;17.48;8.10;;;;;;;13.36;100.00;98143.00;5056298;28;20051;-95
2022/09/23 02:23:27;;;;;;;17.67;9.18;;;;;;;13.27;100.00;98133.63;5053321;28;20202;-95
2022/09/23 02:26:03;;;;;;;20.67;9.23;;;;;;;13.29;100.00;98158.88;5049083;28;20076;-94
2022/09/23 02:29:12;;;;;;;19.50;10.02;;;;;;;13.45;100.00;98154.06;5045487;28;20028;-95
2022/09/23 02:31:57;;;;;;;21.95;10.20;;;;;;;13.24;100.00;98138.97;5047384;28;20021;-95
2022/09/23 02:35:12;;;;;;;21.85;10.55;;;;;;;13.40;100.00;98155.97;5063666;28;20082;-94
2022/09/23 02:37:47;;;;;;;23.60;9.55;;;;;;;13.49;100.00;98133.88;5063134;28;20107;-95
2022/09/23 02:40:28;;;;;;;24.95;9.90;;;;;;;13.61;100.00;98154.47;5045369;28;20033;-93
2022/09/23 02:43:22;;;;;;;19.75;10.05;;;;;;;13.57;100.00;98151.97;5045612;28;20092;-96
2022/09/23 02:45:52;;;;;;;22.85;10.10;;;;;;;13.34;100.00;98153.50;5049371;28;20116;-96
2022/09/23 02:48:44;;;;;;;19.75;9.20;;;;;;;13.34;100.00;98137.78;5045906;28;20147;-96
2022/09/23 02:51:24;;;;;;;17.85;7.20;;;;;;;13.25;100.00;98162.50;5045358;28;20484;-96
2022/09/23 02:53:51;;;;;;;15.40;5.93;;;;;;;13.22;100.00;98146.00;5049069;28;20084;-95
2022/09/23 02:56:31;;;;;;;13.13;5.20;;;;;;;13.17;100.00;98146.16;5043994;28;20131;-95
2022/09/23 02:58:56;;;;;;;12.48;4.70;;;;;;;13.26;100.00;98158.97;5045610;28;20686;-96
2022/09/23 03:01:55;;;;;;;9.57;3.80;;;;;;;13.16;100.00;98168.00;5050683;28;20127;-92
2022/09/23 03:04:49;;;;;;;8.02;2.33;;;;;;;13.07;100.00;98166.50;5048608;28;20041;-93
2022/09/23 03:07:33;;;;;;;;;;;;;;;12.94;100.00;98163.38;5047734;28;20039;-94
2022/09/23 03:16:55;;;;;;;8.65;1.98;;;;;;;12.92;100.00;98178.25;5075418;28;20147;-96
2022/09/23 03:19:58;;;;;;;6.97;1.75;;;;;;;12.78;100.00;98185.63;5046711;28;20036;-96
2022/09/23 03:22:50;;;;;;;6.68;1.83;;;;;;;12.74;100.00;98179.63;5057355;28;20070;-96
2022/09/23 03:26:28;;;;;;;;;;;;;;;;;;;;;
2022/09/23 03:29:27;;;;;;;6.53;1.63;;;;;;;12.84;100.00;98182.84;5070855;28;20029;-96
2022/09/23 03:32:38;;;;;;;8.57;2.00;;;;;;;12.73;100.00;98175.28;5054823;28;20063;-96
2022/09/23 03:35:04;;;;;;;8.10;1.73;;;;;;;12.70;100.00;98171.91;5067795;28;20341;-95
2022/09/23 03:38:06;;;;;;;9.82;1.52;;;;;;;12.68;100.00;98185.03;5053053;28;20035;-95
2022/09/23 03:40:40;;;;;;;7.40;1.48;;;;;;;12.38;100.00;98181.47;5058582;28;20064;-94
2022/09/23 03:43:06;;;;;;;6.63;1.45;;;;;;;12.47;100.00;98183.84;5057582;28;20127;-96
2022/09/23 03:45:33;;;;;;;6.40;1.20;;;;;;;12.58;100.00;98184.41;5057850;28;20086;-96
2022/09/23 03:47:59;;;;;;;9.77;1.40;;;;;;;12.51;100.00;98179.38;5051377;28;20081;-96
2022/09/23 03:51:22;;;;;;;7.40;1.52;;;;;;;12.66;100.00;98180.72;5061522;28;20032;-96
2022/09/23 03:54:08;;;;;;;6.63;1.48;;;;;;;12.54;100.00;98179.28;5033945;28;20047;-96
2022/09/23 03:56:50;;;;;;;8.35;1.48;;;;;;;12.43;100.00;98171.75;5041975;28;20060;-96
2022/09/23 04:00:09;;;;;;;7.60;1.27;;;;;;;12.60;100.00;98164.28;5050298;28;20044;-96
2022/09/23 04:03:26;;;;;;;7.13;1.35;;;;;;;12.79;100.00;98177.75;5039572;28;20045;-96
2022/09/23 04:07:20;;;;;;;6.75;1.30;;;;;;;12.86;100.00;98175.81;5051358;28;20076;-96
2022/09/23 04:16:43;;;;;;;6.55;1.30;;;;;;;13.11;100.00;98180.34;4976199;28;20054;-96
2022/09/23 04:19:10;;;;;;;6.90;1.27;;;;;;;13.08;100.00;98165.59;4963531;28;20558;-96
2022/09/23 04:21:36;;;;;;;5.70;1.40;;;;;;;13.13;100.00;98168.09;4990856;28;20119;-95
2022/09/23 04:24:13;;;;;;;5.22;1.17;;;;;;;13.10;100.00;98168.19;4984571;28;20145;-96
2022/09/23 04:26:42;;;;;;;5.15;1.27;;;;;;;13.10;100.00;98178.66;4958521;28;20066;-96
2022/09/23 04:29:08;;;;;;;6.30;1.20;;;;;;;12.91;100.00;98160.81;4962531;28;20039;-95
2022/09/23 04:32:14;;;;;;;6.20;1.50;;;;;;;12.91;100.00;98168.69;4977550;28;20332;-96
2022/09/23 04:34:39;;;;;;;5.30;1.40;;;;;;;12.95;100.00;98175.53;5026614;23;20056;-87
2022/09/23 04:37:05;;;;;;;6.75;1.25;;;;;;;12.90;100.00;98177.44;5061098;28;20218;-87
2022/09/23 04:39:30;;;;;;;4.90;1.30;;;;;;;12.74;100.00;98179.63;5071981;28;20032;-86
2022/09/23 04:41:56;;;;;;;7.82;1.45;;;;;;;12.72;100.00;98177.94;5053802;28;20044;-87
2022/09/23 04:44:21;;;;;;;9.10;1.30;;;;;;;12.65;100.00;98174.66;5051663;28;20449;-87
2022/09/23 04:46:48;;;;;;;6.22;1.35;;;;;;;12.60;100.00;98181.75;5050246;28;20020;-87
2022/09/23 04:49:14;;;;;;;11.85;1.40;;;;;;;12.57;100.00;98172.22;5050348;28;20402;-87
2022/09/23 04:51:42;;;;;;;5.63;1.60;;;;;;;12.48;100.00;98177.69;5056550;28;20483;-86
2022/09/23 04:54:09;;;;;;;7.13;1.50;;;;;;;12.53;100.00;98178.44;5054880;28;20036;-88
2022/09/23 04:56:34;;;;;;;8.25;1.42;;;;;;;12.43;100.00;98175.22;5051111;28;20487;-87
2022/09/23 04:59:03;;;;;;;5.00;1.15;;;;;;;12.43;100.00;98174.38;5073946;28;20318;-86
2022/09/23 05:01:30;;;;;;;5.50;1.40;;;;;;;12.38;100.00;98171.84;5050972;28;20504;-87
2022/09/23 05:04:01;;;;;;;5.88;1.30;;;;;;;12.49;100.00;98168.97;5074764;28;20059;-87
2022/09/23 05:06:28;;;;;;;18.30;2.65;;;;;;;12.37;100.00;98174.50;5062637;28;20447;-87
2022/09/23 05:08:55;;;;;;;6.47;1.63;;;;;;;12.17;100.00;98172.41;5069509;28;20125;-87
2022/09/23 05:11:22;;;;;;;13.18;2.50;;;;;;;12.08;100.00;98181.31;5073190;28;20024;-87
2022/09/23 05:13:51;;;;;;;6.28;1.33;;;;;;;11.95;100.00;98185.97;5051747;28;20106;-87
2022/09/23 05:16:18;;;;;;;6.63;1.30;;;;;;;11.76;100.00;98180.28;5053064;28;20020;-86
2022/09/23 05:18:44;;;;;;;5.75;1.50;;;;;;;11.69;100.00;98184.81;5073105;28;20502;-86
2022/09/23 05:21:12;;;;;;;5.38;1.52;;;;;;;11.65;100.00;98187.50;5083392;28;20059;-87
2022/09/23 05:23:39;;;;;;;9.32;1.75;;;;;;;11.63;100.00;98192.78;5059818;28;20033;-87
2022/09/23 05:26:07;;;;;;;7.70;1.60;;;;;;;11.33;100.00;98194.28;5060701;28;20027;-87
2022/09/23 05:28:34;;;;;;;7.72;1.42;;;;;;;11.22;100.00;98205.84;5060768;28;20029;-87
2022/09/23 05:31:07;;;;;;;25.20;3.25;;;;;;;11.40;100.00;98208.97;5054205;28;20024;-87
2022/09/23 05:33:33;;;;;;;5.45;1.40;;;;;;;11.25;100.00;98200.53;5076371;28;20028;-87
2022/09/23 05:36:00;;;;;;;7.47;1.65;;;;;;;11.29;100.00;98203.97;5051093;28;20048;-87
2022/09/23 05:38:28;;;;;;;5.00;1.35;;;;;;;11.19;100.00;98205.91;5052999;28;20054;-87
2022/09/23 05:41:02;;;;;;;7.90;1.40;;;;;;;11.06;100.00;98202.69;5071763;28;20031;-88
2022/09/23 05:43:28;;;;;;;5.35;1.20;;;;;;;10.84;100.00;98214.41;5052848;28;20101;-87
2022/09/23 05:46:05;;;;;;;7.95;1.48;;;;;;;10.87;100.00;98204.78;5050356;28;20138;-87
2022/09/23 05:48:33;;;;;;;8.15;1.50;;;;;;;10.82;100.00;98204.00;5053454;28;20028;-87
2022/09/23 05:50:58;;;;;;;4.88;1.40;;;;;;;10.78;100.00;98202.34;5068541;28;20019;-88
2022/09/23 05:53:25;;;;;;;6.57;1.60;;;;;;;10.70;100.00;98212.06;5072908;28;20043;-88
2022/09/23 05:55:50;;;;;;;6.43;1.40;;;;;;;10.64;100.00;98214.78;5054666;28;20036;-88
2022/09/23 05:58:16;;;;;;;5.93;1.30;;;;;;;10.72;100.00;98218.97;5048655;28;20522;-88
2022/09/23 06:00:43;;;;;;;7.22;1.50;;;;;;;10.80;100.00;98217.97;5069379;28;20043;-86
2022/09/23 06:03:19;;;;;;;6.25;1.15;;;;;;;10.65;100.00;98213.91;5054217;28;20119;-88
2022/09/23 06:05:45;;;;;;;5.00;1.50;;;;;;;10.58;100.00;98208.78;5070269;28;20615;-87
2022/09/23 06:08:14;;;;;;;7.03;1.48;;;;;;;10.64;100.00;98218.25;5052003;28;20556;-88
2022/09/23 06:10:43;;;;;;;5.57;1.38;;;;;;;10.53;100.00;98217.59;5077603;28;20028;-90
2022/09/23 06:13:09;;;;;;;7.90;1.48;;;;;;;10.58;100.00;98219.22;5058500;28;20024;-88
2022/09/23 06:15:36;;;;;;;4.65;1.20;;;;;;;10.70;100.00;98222.50;5062837;28;20024;-89
2022/09/23 06:18:02;;;;;;;7.18;1.25;;;;;;;10.79;100.00;98226.69;5062531;28;20034;-87
2022/09/23 06:20:28;;;;;;;6.88;1.52;;;;;;;10.66;100.00;98219.09;5058711;28;20399;-87
2022/09/23 06:22:55;;;;;;;4.82;1.05;;;;;;;10.56;100.00;98214.91;5061674;28;20039;-88
2022/09/23 06:25:21;;;;;;;7.85;1.20;;;;;;;10.60;100.00;98221.78;5056861;28;20111;-88
2022/09/23 06:27:53;;;;;;;9.68;1.40;;;;;;;10.59;100.00;98233.97;5076193;28;20024;-88
2022/09/23 06:30:20;;;;;;;5.45;1.20;;;;;;;10.63;100.00;98228.72;5078933;28;20123;-88
2022/09/23 06:32:53;;;;;;;7.50;1.15;;;;;;;10.74;100.00;98234.59;5073546;28;20038;-88
2022/09/23 06:35:22;;;;;;;7.43;1.30;;;;;;;10.65;100.00;98238.22;5069292;28;20052;-85
2022/09/23 06:37:51;;;;;;;7.30;1.20;;;;;;;10.64;100.00;98238.25;5075441;28;20773;-89
2022/09/23 06:40:17;;;;;;;5.95;1.10;;;;;;;10.32;100.00;98244.84;5083037;28;20035;-87
2022/09/23 06:42:43;;;;;;;8.52;1.17;;;;;;;10.29;100.00;98244.91;5056115;28;20030;-89
2022/09/23 06:45:13;;;;;;;7.43;1.10;;;;;;;10.33;100.00;98255.25;5054108;28;20054;-89
2022/09/23 06:47:40;;;;;;;5.30;1.00;;;;;;;10.34;100.00;98246.59;5056782;28;20051;-89
2022/09/23 06:50:07;;;;;;;7.82;1.30;;;;;;;10.79;100.00;98248.41;5077773;28;20020;-88
2022/09/23 06:52:33;;;;;;;7.68;1.23;;;;;;;10.91;100.00;98247.31;5077842;28;20637;-88
2022/09/23 06:54:59;;;;;;;7.07;1.15;;;;;;;10.92;100.00;98255.13;5079993;28;20054;-88
2022/09/23 06:57:31;;;;;;;7.65;1.13;;;;;;;10.97;100.00;98257.66;5065451;28;20024;-87
2022/09/23 06:59:58;;;;;;;5.68;1.17;;;;;;;11.22;100.00;98246.75;5063710;28;20051;-88
2022/09/23 07:02:26;;;;;;;5.40;0.90;;;;;;;11.32;100.00;98261.31;5067504;28;20074;-89
2022/09/23 07:04:55;;;;;;;5.90;0.90;;;;;;;11.24;100.00;98251.03;5081186;28;20492;-90
2022/09/23 07:07:20;;;;;;;6.18;1.05;;;;;;;11.22;100.00;98265.88;5064892;28;20051;-89
2022/09/23 07:09:46;;;;;;;4.43;1.00;;;;;;;11.18;100.00;98256.38;5084132;28;20024;-88
2022/09/23 07:12:12;;;;;;;5.35;1.02;;;;;;;11.34;100.00;98269.13;5054155;28;20063;-87
2022/09/23 07:14:37;;;;;;;5.00;1.13;;;;;;;11.44;100.00;98268.06;5059956;28;20732;-88
2022/09/23 07:17:03;;;;;;;6.25;1.13;;;;;;;11.44;100.00;98268.06;5065707;28;20074;-88
2022/09/23 07:19:30;;;;;;;5.93;1.05;;;;;;;11.44;100.00;98270.69;5062460;28;20035;-89
2022/09/23 07:21:55;;;;;;;5.63;1.15;;;;;;;11.58;100.00;98271.25;5080003;28;20034;-87
2022/09/23 07:24:21;;;;;;;5.35;0.90;;;;;;;11.69;100.00;98277.97;5055943;28;20029;-88
2022/09/23 07:26:48;;;;;;;8.65;0.98;;;;;;;11.59;100.00;98277.31;5059749;28;20031;-87
2022/09/23 07:29:13;;;;;;;4.00;0.70;;;;;;;11.60;100.00;98282.50;5062321;28;20123;-87
2022/09/23 07:31:39;;;;;;;5.95;0.90;;;;;;;11.87;100.00;98288.06;5060698;28;20023;-88
2022/09/23 07:34:05;;;;;;;6.38;0.80;;;;;;;11.97;100.00;98282.63;5062811;28;20798;-87
2022/09/23 07:36:31;;;;;;;8.13;0.90;;;;;;;11.71;100.00;98279.66;5065405;28;20724;-88
2022/09/23 07:39:02;;;;;;;4.78;0.90;;;;;;;11.94;100.00;98286.16;5065281;28;20072;-87
2022/09/23 07:41:29;;;;;;;3.75;0.75;;;;;;;12.10;100.00;98287.53;5069034;28;20046;-85
2022/09/23 07:43:57;;;;;;;3.10;0.68;;;;;;;11.98;100.00;98289.59;5060827;28;20105;-87
2022/09/23 07:46:26;;;;;;;4.20;0.95;;;;;;;12.26;100.00;98281.97;5058212;28;20459;-88
2022/09/23 07:48:53;;;;;;;2.90;0.52;;;;;;;11.99;100.00;98297.38;5060333;28;20436;-87
2022/09/23 07:51:20;;;;;;;4.00;1.20;;;;;;;11.94;100.00;98305.34;5054788;28;20110;-87
2022/09/23 07:53:47;;;;;;;4.13;0.82;;;;;;;12.50;100.00;98296.22;5057503;28;20581;-87
2022/09/23 07:56:13;;;;;;;7.97;0.73;;;;;;;12.39;100.00;98287.78;5081193;28;20035;-86
2022/09/23 07:58:39;;;;;;;5.22;0.88;;;;;;;12.49;100.00;98299.72;5060881;28;20542;-87
2022/09/23 08:01:09;;;;;;;4.60;0.82;;;;;;;12.58;100.00;98296.91;5059827;28;20116;-87
2022/09/23 08:03:35;;;;;;;6.53;0.80;;;;;;;12.46;100.00;98298.03;5053254;28;20042;-87
2022/09/23 08:06:09;;;;;;;4.57;0.70;;;;;;;12.43;100.00;98295.50;5057845;28;20035;-87
2022/09/23 08:08:38;;;;;;;5.97;0.80;;;;;;;12.57;100.00;98300.41;5053018;28;20031;-87
2022/09/23 08:11:05;;;;;;;4.63;0.80;;;;;;;12.79;100.00;98298.13;5051983;28;20043;-87
2022/09/23 08:13:31;;;;;;;3.10;0.68;;;;;;;12.75;100.00;98304.31;5076989;28;20052;-87
2022/09/23 08:15:57;;;;;;;4.35;0.70;;;;;;;12.68;100.00;98301.88;5078530;28;20029;-88
2022/09/23 08:18:23;;;;;;;3.83;0.80;;;;;;;12.86;100.00;98305.78;5064053;28;20035;-87
2022/09/23 08:20:51;;;;;;;3.63;0.70;;;;;;;13.04;100.00;98307.94;5061802;28;20117;-86
2022/09/23 08:23:19;;;;;;;8.35;1.10;;;;;;;13.03;100.00;98310.63;5086950;28;20046;-86
2022/09/23 08:25:46;;;;;;;2.50;0.60;;;;;;;12.87;100.00;98310.97;5062034;28;20458;-87
2022/09/23 08:28:17;;;;;;;5.30;0.85;;;;;;;13.10;100.00;98320.03;5062109;28;20115;-87
2022/09/23 08:30:46;;;;;;;7.00;1.02;;;;;;;13.11;100.00;98322.59;5061310;28;20036;-85
2022/09/23 08:33:12;;;;;;;5.80;0.70;;;;;;;13.23;100.00;98317.94;5081209;28;20038;-87
2022/09/23 08:35:38;;;;;;;4.72;0.98;;;;;;;13.39;100.00;98321.00;5078136;28;20044;-87
2022/09/23 08:38:04;;;;;;;3.47;0.65;;;;;;;13.36;100.00;98318.47;5067340;28;20479;-88
2022/09/23 08:40:34;;;;;;;6.40;0.75;;;;;;;13.48;100.00;98315.53;5064355;28;20075;-89
2022/09/23 08:43:00;;;;;;;4.45;0.80;;;;;;;13.36;100.00;98315.84;5057649;28;20036;-88
2022/09/23 08:45:27;;;;;;;6.60;0.93;;;;;;;13.38;100.00;98321.94;5061481;28;20039;-89
2022/09/23 08:48:05;;;;;;;5.38;1.13;;;;;;;13.44;100.00;98329.59;5067119;28;20115;-89
2022/09/23 08:50:41;;;;;;;6.60;0.77;;;;;;;13.47;100.00;98337.38;5053436;28;20035;-88
2022/09/23 08:53:20;;;;;;;4.47;0.80;;;;;;;13.43;100.00;98334.00;5079090;28;20384;-88
2022/09/23 08:55:49;;;;;;;7.03;1.00;;;;;;;13.56;100.00;98334.50;5056777;28;20060;-88
2022/09/23 08:58:53;;;;;;;5.32;0.80;;;;;;;13.58;100.00;98331.84;5086233;28;20569;-88
2022/09/23 09:01:51;;;;;;;5.88;0.93;;;;;;;13.54;100.00;98338.06;5061414;28;20113;-88
2022/09/23 09:04:32;;;;;;;7.20;1.00;;;;;;;13.54;100.00;98331.09;5060691;28;20039;-88
2022/09/23 09:07:07;;;;;;;5.95;0.95;;;;;;;13.88;100.00;98337.97;5063613;28;20032;-88
2022/09/23 09:09:35;;;;;;;10.30;1.20;;;;;;;13.84;100.00;98338.97;5059221;28;20024;-88
2022/09/23 09:12:12;;;;;;;5.20;0.88;;;;;;;13.89;100.00;98337.06;5057350;28;20044;-88
2022/09/23 09:15:05;;;;;;;5.18;0.73;;;;;;;13.93;100.00;98343.94;5080443;28;20032;-87
2022/09/23 09:17:38;;;;;;;4.57;0.80;;;;;;;14.03;100.00;98343.66;5052548;28;20586;-87
2022/09/23 09:20:07;;;;;;;4.35;0.70;;;;;;;14.01;100.00;98346.31;5084006;28;20045;-89
2022/09/23 09:22:49;;;;;;;5.00;0.70;;;;;;;14.11;100.00;98358.28;5062050;28;20089;-88
2022/09/23 09:25:41;;;;;;;5.93;0.90;;;;;;;14.19;100.00;98354.56;5080723;28;20036;-89
2022/09/23 09:28:16;;;;;;;4.22;0.90;;;;;;;14.36;100.00;98348.78;5072362;28;20139;-89
2022/09/23 09:30:43;;;;;;;5.70;0.68;;;;;;;14.42;100.00;98352.09;5056553;28;20168;-89
2022/09/23 09:33:16;;;;;;;6.43;0.80;;;;;;;14.46;100.00;98347.59;5058098;28;20071;-88
2022/09/23 09:36:07;;;;;;;5.80;0.98;;;;;;;14.43;100.00;98347.69;5076395;28;20421;-89
2022/09/23 09:38:34;;;;;;;4.85;0.85;;;;;;;14.52;100.00;98337.75;5072713;28;20482;-88
2022/09/23 09:41:11;;;;;;;4.07;0.80;;;;;;;14.98;100.00;98348.56;5082168;28;20513;-88
2022/09/23 09:43:39;;;;;;;5.30;0.63;;;;;;;14.90;100.00;98340.06;5063556;28;20098;-88
2022/09/23 09:46:45;;;;;;;9.70;0.90;;;;;;;15.23;100.00;98349.50;5083688;28;20055;-88
2022/09/23 09:49:27;;;;;;;3.85;0.80;;;;;;;15.09;100.00;98361.34;5057624;28;20032;-88
2022/09/23 09:52:24;;;;;;;3.35;0.80;;;;;;;16.71;100.00;98344.88;5057655;28;20075;-87
2022/09/23 09:54:51;;;;;;;3.70;0.65;;;;;;;17.38;100.00;98361.44;5064197;28;20036;-88
2022/09/23 09:57:30;;;;;;;5.38;0.93;;;;;;;17.40;100.00;98351.66;5064216;28;20119;-91
2022/09/23 09:59:57;;;;;;;5.63;0.90;;;;;;;17.20;100.00;98354.28;5064224;28;20059;-93
2022/09/23 10:02:29;;;;;;;5.72;0.95;;;;;;;17.63;100.00;98364.75;5082803;28;20087;-90
2022/09/23 10:05:01;;;;;;;4.32;0.75;;;;;;;17.79;100.00;98370.22;5085181;28;20150;-92
2022/09/23 10:07:29;;;;;;;4.80;0.80;;;;;;;17.46;100.00;98370.78;5063756;28;20043;-92
2022/09/23 10:09:55;;;;;;;5.53;0.80;;;;;;;17.45;100.00;98372.53;5084480;28;20625;-94
2022/09/23 10:12:23;;;;;;;6.15;1.20;;;;;;;17.21;100.00;98377.94;5065165;28;20031;-94
2022/09/23 10:14:54;;;;;;;6.38;0.88;;;;;;;17.05;100.00;98390.06;5059148;28;20040;-92
2022/09/23 10:17:34;;;;;;;4.20;0.80;;;;;;;17.33;100.00;98383.63;5073203;28;20113;-93
2022/09/23 10:20:05;;;;;;;2.55;0.60;;;;;;;17.00;100.00;98389.38;5077632;28;21026;-93
2022/09/23 10:22:37;;;;;;;4.10;0.85;;;;;;;17.04;100.00;98393.59;5062061;28;20212;-92
2022/09/23 10:25:11;;;;;;;4.50;0.90;;;;;;;16.78;100.00;98398.13;5059241;28;20062;-94
2022/09/23 10:27:37;;;;;;;6.93;1.00;;;;;;;16.86;100.00;98392.56;5079160;28;20024;-92
2022/09/23 10:30:20;;;;;;;4.72;0.77;;;;;;;16.43;100.00;98404.78;5082196;28;20077;-92
2022/09/23 10:32:46;;;;;;;3.72;0.70;;;;;;;15.95;100.00;98402.16;5052951;28;20028;-93
2022/09/23 10:35:20;;;;;;;5.10;0.80;;;;;;;16.53;100.00;98400.88;5075527;28;20064;-93
2022/09/23 10:37:54;;;;;;;5.03;0.80;;;;;;;16.11;100.00;98401.59;5103993;28;20012;-93
2022/09/23 10:46:40;;;;;;;2.30;0.50;;;;;;;16.39;100.00;98385.59;5096387;28;20075;-92
2022/09/23 10:49:24;;;;;;;2.78;0.50;;;;;;;16.13;100.00;98399.75;5082623;28;20032;-94
2022/09/23 10:52:18;;;;;;;5.38;0.63;;;;;;;16.24;100.00;98391.47;5062223;28;20376;-92
2022/09/23 10:54:53;;;;;;;1.35;0.43;;;;;;;16.19;100.00;98400.38;5069810;28;20043;-93
2022/09/23 10:57:52;;;;;;;3.90;0.70;;;;;;;16.21;100.00;98395.06;5061478;28;20484;-94
2022/09/23 11:00:24;;;;;;;4.18;0.60;;;;;;;16.34;100.00;98398.94;5079143;28;20135;-91
2022/09/23 11:03:27;;;;;;;4.82;0.77;;;;;;;16.25;100.00;98391.41;5060767;28;20027;-92
2022/09/23 11:06:20;;;;;;;6.15;0.70;;;;;;;16.15;100.00;98404.03;5082324;28;20035;-92
2022/09/23 11:09:23;;;;;;;6.40;1.38;;;;;;;16.59;100.00;98384.84;5083868;28;20036;-91
2022/09/23 11:12:05;;;;;;;3.88;0.60;;;;;;;15.93;100.00;98388.19;5075013;28;20032;-92
2022/09/23 11:14:44;;;;;;;3.33;0.77;;;;;;;15.27;100.00;98394.00;5062636;28;20051;-91
2022/09/23 11:17:47;;;;;;;4.78;0.85;;;;;;;15.98;100.00;98396.78;5055944;28;20039;-91
2022/09/23 11:20:21;;;;;;;5.07;0.77;;;;;;;16.38;100.00;98392.66;5078205;28;20724;-90
2022/09/23 11:23:19;;;;;;;4.13;0.80;;;;;;;16.40;100.00;98389.13;5053328;28;20035;-92
2022/09/23 11:26:12;;;;;;;7.20;0.98;;;;;;;16.49;100.00;98386.97;5062392;28;20039;-93
2022/09/23 11:29:03;;;;;;;5.70;0.80;;;;;;;16.79;100.00;98388.47;5070384;28;20044;-93
2022/09/23 11:31:51;;;;;;;5.20;0.70;;;;;;;17.11;100.00;98383.69;5054149;28;20076;-92
2022/09/23 11:34:34;;;;;;;3.53;0.82;;;;;;;16.95;100.00;98394.84;5071996;28;20043;-93
2022/09/23 11:37:06;;;;;;;4.43;0.70;;;;;;;16.94;100.00;98379.09;5067900;28;20503;-91
2022/09/23 11:39:39;;;;;;;3.65;0.77;;;;;;;16.47;100.00;98393.22;5057450;28;20106;-92
2022/09/23 11:42:11;;;;;;;4.28;0.88;;;;;;;15.82;100.00;98393.88;5060684;28;20749;-91
2022/09/23 11:44:49;;;;;;;2.58;0.60;;;;;;;15.73;100.00;98383.66;5057822;28;20035;-93
2022/09/23 11:47:47;;;;;;;3.72;0.70;;;;;;;16.16;100.00;98383.88;5083293;28;20086;-93
2022/09/23 11:50:45;;;;;;;3.30;0.70;;;;;;;16.41;100.00;98375.91;5070253;28;20055;-94
2022/09/23 11:53:28;;;;;;;7.30;0.75;;;;;;;16.41;100.00;98375.03;5068281;28;20028;-93
2022/09/23 11:56:22;;;;;;;6.25;0.70;;;;;;;16.68;100.00;98360.75;5063913;28;20036;-93
2022/09/23 11:59:20;;;;;;;3.58;0.75;;;;;;;16.78;100.00;98365.66;5066866;28;20025;-93
2022/09/23 12:02:00;;;;;;;3.38;0.75;;;;;;;17.17;100.00;98363.19;5068554;28;20059;-93
2022/09/23 12:04:54;;;;;;;3.35;0.60;;;;;;;17.19;100.00;98358.72;5067105;28;20040;-92
2022/09/23 12:07:28;;;;;;;2.75;0.47;;;;;;;16.66;100.00;98359.97;5060879;28;20036;-92
2022/09/23 12:10:20;;;;;;;;;;;;;;;17.29;100.00;98360.97;5081596;28;20020;-93
2022/09/23 12:13:20;;;;;;;4.47;0.70;;;;;;;17.56;100.00;98359.78;5081504;28;19941;-92
2022/09/23 12:16:44;;;;;;;5.57;0.90;;;;;;;17.44;100.00;98359.44;5060961;28;20144;-94
2022/09/23 12:19:34;;;;;;;2.45;0.63;;;;;;;16.52;100.00;98364.91;5068404;28;20495;-93
2022/09/23 12:22:52;;;;;;;4.50;0.63;;;;;;;16.33;100.00;98362.19;5066889;28;20039;-92
2022/09/23 12:26:23;;;;;;;3.53;0.57;;;;;;;16.99;100.00;98351.66;5032435;28;20602;-93
2022/09/23 12:29:20;;;;;;;5.50;0.90;;;;;;;17.70;100.00;98342.47;4996552;28;20192;-95
2022/09/23 12:32:06;;;;;;;3.35;0.70;;;;;;;17.42;100.00;98351.59;4996199;28;20521;-93